This is the latest recevied weather packets stored in our database for station/object DK2OO-6. If no packets are shown the sender has not sent any weather packets the latest 10 day(s).
| Time | Temp. | Humidity | Pressure | Rain* | Wind** | Luminosity | Snow |
|---|---|---|---|---|---|---|---|
| 1777676565 | 6.11° C | 64% | 1018.1 hPa | 0 mm | - | - | - |
| 1777675958 | 6.11° C | 64% | 1018.3 hPa | 0 mm | - | - | - |
| 1777675358 | 6.11° C | 63% | 1018.3 hPa | 0 mm | - | - | - |
| 1777671729 | 7.78° C | 58% | 1018.2 hPa | 0 mm | - | - | - |
| 1777671124 | 8.33° C | 57% | 1018.3 hPa | 0 mm | - | - | - |
| 1777670521 | 8.33° C | 57% | 1018.3 hPa | 0 mm | - | - | - |
| 1777669917 | 8.89° C | 56% | 1018.5 hPa | 0 mm | - | - | - |
| 1777667497 | 10° C | 52% | 1018.5 hPa | 0 mm | - | - | - |
| 1777666889 | 10° C | 50% | 1018.5 hPa | 0 mm | - | - | - |
| 1777666282 | 10.56° C | 48% | 1018.3 hPa | 0 mm | - | - | - |
| 1777662651 | 15° C | 40% | 1018.1 hPa | 0 mm | - | - | - |
| 1777659029 | 17.22° C | 37% | 1017.7 hPa | 0 mm | - | - | - |
| 1777658429 | 17.78° C | 37% | 1017.7 hPa | 0 mm | - | - | - |
| 1777657220 | 17.78° C | 36% | 1017.6 hPa | 0 mm | - | - | - |
| 1777653593 | 19.44° C | 35% | 1017.8 hPa | 0 mm | - | - | - |
| 1777652393 | 19.44° C | 34% | 1017.9 hPa | 0 mm | - | - | - |
| 1777651182 | 20° C | 34% | 1018 hPa | 0 mm | - | - | - |
| 1777649975 | 20° C | 33% | 1018.1 hPa | 0 mm | - | - | - |
| 1777648765 | 20.56° C | 33% | 1018.3 hPa | 0 mm | - | - | - |
| 1777648163 | 20.56° C | 32% | 1018.3 hPa | 0 mm | - | - | - |
| 1777646961 | 20.56° C | 33% | 1018.3 hPa | 0 mm | - | - | - |
| 1777645745 | 21.11° C | 33% | 1018.6 hPa | 0 mm | - | - | - |
| 1777642718 | 21.11° C | 32% | 1018.9 hPa | 0 mm | - | - | - |
| 1777641516 | 21.67° C | 32% | 1019.1 hPa | 0 mm | - | - | - |
| 1777639095 | 21.11° C | 33% | 1019.3 hPa | 0 mm | - | - | - |
* Rain latest hour (hover to see other rain measurements)
** Current wind speed in m/s (hover to see current wind gust speed)